createdAt,value
2022-08-10T00:00:04.768Z,67.65
2022-08-10T00:01:04.714Z,67.55
2022-08-10T00:02:05.278Z,66.75
2022-08-10T00:03:05.147Z,66.55
2022-08-10T00:04:05.091Z,66.24
2022-08-10T00:05:05.048Z,65.57
2022-08-10T00:06:05.240Z,66.64
2022-08-10T00:07:06.110Z,66.78
2022-08-10T00:08:05.717Z,66.38
2022-08-10T00:09:05.573Z,67.48
2022-08-10T00:10:05.441Z,66.67
2022-08-10T00:11:05.306Z,66.47
2022-08-10T00:11:15.347Z,66.67
2022-08-10T00:12:02.997Z,66.98
2022-08-10T00:13:02.804Z,66.08
2022-08-10T00:14:02.703Z,65.77
2022-08-10T00:15:02.666Z,65.67
2022-08-10T00:16:02.440Z,65.37
2022-08-10T00:17:02.996Z,66.67
2022-08-10T00:18:03.589Z,68.18
2022-08-10T00:19:03.058Z,68.18
2022-08-10T00:20:08.762Z,66.81
2022-08-10T00:21:03.638Z,67.82
2022-08-10T00:22:02.315Z,66.41
2022-08-10T00:23:02.209Z,66.11
2022-08-10T00:24:02.844Z,66.51
2022-08-10T00:25:02.500Z,67.61
2022-08-10T00:26:02.409Z,67.71
2022-08-10T00:27:52.401Z,67.51
2022-08-10T00:28:04.249Z,68.02
2022-08-10T00:29:03.195Z,67.82
2022-08-10T00:30:03.457Z,66.91
2022-08-10T00:31:03.418Z,67.82
2022-08-10T00:32:02.403Z,66.81
2022-08-10T00:33:02.318Z,67.51
2022-08-10T00:34:02.845Z,66.64
2022-08-10T00:35:02.533Z,66.74
2022-08-10T00:36:02.429Z,66.74
2022-08-10T00:37:03.133Z,67.04
2022-08-10T00:38:03.039Z,67.44
2022-08-10T00:39:02.973Z,67.94
2022-08-10T00:40:02.872Z,67.35
2022-08-10T00:41:03.434Z,66.64
2022-08-10T00:42:07.623Z,66.54
2022-08-10T00:43:03.246Z,66.44
2022-08-10T00:44:03.584Z,66.84
2022-08-10T00:45:03.332Z,66.64
2022-08-10T00:46:03.234Z,66.24
2022-08-10T00:47:02.888Z,67.74
2022-08-10T00:48:03.035Z,67.14
2022-08-10T00:49:03.318Z,66.77
2022-08-10T00:50:03.147Z,66.97
2022-08-10T00:51:03.027Z,66.57
2022-08-10T00:52:02.990Z,68.48
2022-08-10T00:53:03.015Z,69.69
2022-08-10T00:54:03.025Z,69.59
2022-08-10T00:55:03.025Z,69.89
2022-08-10T00:56:35.828Z,71.00
2022-08-10T00:57:15.988Z,70.09
2022-08-10T00:58:03.778Z,69.22
2022-08-10T00:59:03.396Z,68.41
2022-08-10T01:00:03.307Z,68.41
2022-08-10T01:01:03.329Z,68.91
2022-08-10T01:02:08.883Z,70.03
2022-08-10T01:03:02.907Z,70.03
2022-08-10T01:04:39.692Z,70.53
2022-08-10T01:05:03.148Z,69.12
2022-08-10T01:06:03.172Z,69.62
2022-08-10T01:07:03.090Z,68.82
2022-08-10T01:08:02.999Z,68.55
2022-08-10T01:09:02.892Z,69.56
2022-08-10T01:10:03.340Z,69.35
2022-08-10T01:11:03.219Z,68.85
2022-08-10T01:12:37.407Z,69.05
2022-08-10T01:13:02.677Z,68.55
2022-08-10T01:14:02.551Z,68.35
2022-08-10T01:15:03.118Z,68.24
2022-08-10T01:16:02.679Z,70.06
2022-08-10T01:17:03.282Z,71.77
2022-08-10T01:18:02.965Z,71.47
2022-08-10T01:19:03.539Z,69.79
2022-08-10T01:20:03.412Z,70.29
2022-08-10T01:21:03.316Z,70.19
2022-08-10T01:22:02.631Z,69.49
2022-08-10T01:23:02.546Z,70.59
2022-08-10T01:24:02.713Z,69.69
2022-08-10T01:25:02.741Z,69.09
2022-08-10T01:26:11.779Z,69.38
2022-08-10T01:27:02.986Z,69.89
2022-08-10T01:28:03.175Z,69.89
2022-08-10T01:29:02.940Z,68.88
2022-08-10T01:30:03.482Z,70.90
2022-08-10T01:31:03.117Z,70.70
2022-08-10T01:32:02.728Z,72.54
2022-08-10T01:33:03.171Z,74.76
2022-08-10T01:34:02.945Z,72.24
2022-08-10T01:35:02.663Z,71.23
2022-08-10T01:36:02.545Z,70.62
2022-08-10T01:37:03.116Z,71.44
2022-08-10T01:38:03.216Z,70.22
2022-08-10T01:39:03.610Z,69.62
2022-08-10T01:40:02.854Z,70.73
2022-08-10T01:41:02.925Z,72.14
2022-08-10T01:42:03.634Z,71.13
2022-08-10T01:43:08.486Z,71.64
2022-08-10T01:44:03.901Z,72.34
2022-08-10T01:45:03.576Z,71.23
2022-08-10T01:46:03.456Z,70.73
2022-08-10T01:47:03.212Z,72.44
2022-08-10T01:48:03.027Z,71.44
2022-08-10T01:49:02.969Z,71.37
2022-08-10T01:50:02.919Z,71.67
2022-08-10T01:51:02.887Z,72.58
2022-08-10T01:52:03.555Z,71.67
2022-08-10T01:53:03.337Z,72.17
2022-08-10T01:54:03.185Z,74.29
2022-08-10T01:55:03.103Z,73.08
2022-08-10T01:56:03.073Z,72.78
2022-08-10T01:57:03.776Z,72.17
2022-08-10T01:58:03.411Z,72.78
2022-08-10T01:59:03.218Z,72.98
2022-08-10T02:00:03.561Z,72.47
2022-08-10T02:01:03.818Z,72.67
2022-08-10T02:02:02.085Z,73.52
2022-08-10T02:03:02.007Z,73.82
2022-08-10T02:04:05.740Z,72.41
2022-08-10T02:05:01.743Z,71.40
2022-08-10T02:06:02.312Z,71.20
2022-08-10T02:07:02.610Z,71.30
2022-08-10T02:08:02.539Z,72.11
2022-08-10T02:09:06.606Z,72.41
2022-08-10T02:10:02.344Z,73.42
2022-08-10T02:11:02.215Z,74.02
2022-08-10T02:12:07.519Z,73.52
2022-08-10T02:13:02.663Z,72.91
2022-08-10T02:14:02.612Z,74.12
2022-08-10T02:15:02.568Z,73.05
2022-08-10T02:16:02.626Z,72.24
2022-08-10T02:17:02.218Z,72.75
2022-08-10T02:18:02.333Z,73.65
2022-08-10T02:19:01.792Z,74.36
2022-08-10T02:20:01.688Z,74.46
2022-08-10T02:21:02.260Z,75.37
2022-08-10T02:22:35.797Z,74.46
2022-08-10T02:23:02.248Z,75.27
2022-08-10T02:24:02.257Z,74.16
2022-08-10T02:25:02.156Z,75.16
2022-08-10T02:26:02.143Z,75.81
2022-08-10T02:27:02.060Z,75.40
2022-08-10T02:28:02.384Z,74.69
2022-08-10T02:29:02.294Z,75.00
2022-08-10T02:30:02.141Z,74.69
2022-08-10T02:31:02.655Z,73.89
2022-08-10T02:32:02.283Z,74.40
2022-08-10T02:33:02.513Z,74.40
2022-08-10T02:34:02.861Z,75.60
2022-08-10T02:35:03.019Z,75.51
2022-08-10T02:36:02.801Z,75.51
2022-08-10T02:37:01.777Z,75.71
2022-08-10T02:38:01.711Z,74.90
2022-08-10T02:39:01.705Z,74.60
2022-08-10T02:40:02.322Z,75.40
2022-08-10T02:45:02.061Z,75.60
2022-08-10T02:45:14.467Z,75.81
2022-08-10T02:45:20.365Z,75.13
2022-08-10T02:45:21.099Z,75.71
2022-08-10T02:45:21.567Z,76.04
2022-08-10T02:46:02.500Z,75.84
2022-08-10T02:47:02.402Z,75.04
2022-08-10T02:48:03.108Z,74.84
2022-08-10T02:49:02.742Z,77.06
2022-08-10T02:50:02.695Z,75.13
2022-08-10T02:51:02.473Z,76.04
2022-08-10T02:52:06.465Z,76.86
2022-08-10T02:53:02.395Z,76.04
2022-08-10T02:54:02.237Z,76.65
2022-08-10T02:55:06.136Z,77.26
2022-08-10T02:56:02.239Z,76.65
2022-08-10T02:57:02.230Z,76.04
2022-08-10T02:58:16.593Z,75.78
2022-08-10T02:59:02.069Z,74.87
2022-08-10T03:00:02.858Z,75.48
2022-08-10T03:01:02.684Z,75.17
2022-08-10T03:02:02.342Z,75.27
2022-08-10T03:03:02.221Z,74.97
2022-08-10T03:04:02.789Z,74.26
2022-08-10T03:05:02.689Z,76.39
2022-08-10T03:06:02.658Z,75.48
2022-08-10T03:07:02.615Z,75.48
2022-08-10T03:08:02.518Z,75.57
2022-08-10T03:09:03.113Z,74.77
2022-08-10T03:10:02.758Z,77.19
2022-08-10T03:11:02.572Z,77.70
2022-08-10T03:12:34.793Z,76.08
2022-08-10T03:13:02.129Z,74.97
2022-08-10T03:14:02.691Z,75.88
2022-08-10T03:15:02.306Z,76.08
2022-08-10T03:16:02.183Z,75.98
2022-08-10T03:17:02.815Z,75.07
2022-08-10T03:18:02.720Z,74.66
2022-08-10T03:19:02.772Z,74.06
2022-08-10T03:20:34.753Z,74.46
2022-08-10T03:21:03.261Z,74.57
2022-08-10T03:22:01.952Z,76.02
2022-08-10T03:23:01.826Z,75.21
2022-08-10T03:24:02.257Z,75.71
2022-08-10T03:25:02.243Z,74.70
2022-08-10T03:26:01.928Z,74.19
2022-08-10T03:27:02.296Z,75.81
2022-08-10T03:28:02.619Z,74.80
2022-08-10T03:29:02.548Z,75.51
2022-08-10T03:30:28.563Z,77.03
2022-08-10T03:31:02.414Z,76.02
2022-08-10T03:32:02.047Z,76.72
2022-08-10T03:33:01.939Z,77.53
2022-08-10T03:34:01.845Z,76.72
2022-08-10T03:35:02.461Z,77.23
2022-08-10T03:36:42.054Z,78.28
2022-08-10T03:37:02.402Z,78.78
2022-08-10T03:38:02.379Z,78.38
2022-08-10T03:39:02.386Z,78.17
2022-08-10T03:40:02.397Z,77.97
2022-08-10T03:41:02.312Z,77.97
2022-08-10T03:42:02.983Z,79.49
2022-08-10T03:43:03.085Z,79.49
2022-08-10T03:44:03.452Z,78.48
2022-08-10T03:45:03.201Z,79.13
2022-08-10T03:46:03.131Z,77.71
2022-08-10T03:47:02.179Z,79.69
2022-08-10T03:48:01.921Z,79.83
2022-08-10T03:49:02.127Z,78.42
2022-08-10T03:50:03.568Z,79.83
2022-08-10T03:51:01.902Z,78.31
2022-08-10T03:52:02.647Z,77.26
2022-08-10T03:53:02.634Z,77.30
2022-08-10T03:54:06.993Z,78.72
2022-08-10T03:55:02.581Z,77.91
2022-08-10T03:56:28.673Z,77.30
2022-08-10T03:57:02.583Z,77.20
2022-08-10T03:58:02.516Z,77.00
2022-08-10T03:59:02.455Z,78.21
2022-08-10T04:00:02.439Z,78.31
2022-08-10T04:01:02.780Z,78.62
2022-08-10T04:02:43.270Z,80.13
2022-08-10T04:03:02.466Z,79.33
2022-08-10T04:04:11.748Z,78.42
2022-08-10T04:05:02.484Z,77.40
2022-08-10T04:06:02.482Z,77.20
2022-08-10T04:07:03.263Z,76.70
2022-08-10T04:08:03.147Z,77.00
2022-08-10T04:09:03.225Z,77.20
2022-08-10T04:10:03.070Z,76.90
2022-08-10T04:11:03.145Z,76.59
2022-08-10T04:12:02.845Z,77.20
2022-08-10T04:13:03.039Z,77.10
2022-08-10T04:14:02.873Z,76.50
2022-08-10T04:15:02.847Z,76.29
2022-08-10T04:16:02.800Z,76.70
2022-08-10T04:17:03.551Z,77.40
2022-08-10T04:18:06.378Z,78.21
2022-08-10T04:19:03.362Z,78.92
2022-08-10T04:20:03.331Z,79.43
2022-08-10T04:21:03.312Z,79.57
2022-08-10T04:22:03.094Z,78.25
2022-08-10T04:23:03.134Z,79.06
2022-08-10T04:24:03.178Z,78.35
2022-08-10T04:25:02.665Z,79.87
2022-08-10T04:26:02.672Z,79.36
2022-08-10T04:27:03.398Z,78.96
2022-08-10T04:28:03.563Z,79.36
2022-08-10T04:29:03.318Z,79.26
2022-08-10T04:30:03.375Z,80.27
2022-08-10T04:31:03.386Z,79.97
2022-08-10T04:32:03.433Z,79.87
2022-08-10T04:33:03.654Z,80.68
2022-08-10T04:34:08.434Z,80.68
2022-08-10T04:35:03.459Z,80.58
2022-08-10T04:36:03.625Z,80.98
2022-08-10T04:37:08.153Z,82.40
2022-08-10T04:38:02.829Z,80.47
2022-08-10T04:39:02.897Z,79.57
2022-08-10T04:40:02.901Z,79.87
2022-08-10T04:41:02.712Z,79.77
2022-08-10T04:42:03.327Z,80.18
2022-08-10T04:43:09.000Z,79.57
2022-08-10T04:44:03.253Z,79.16
2022-08-10T04:45:03.317Z,79.46
2022-08-10T04:46:03.323Z,80.27
2022-08-10T04:47:03.058Z,79.67
2022-08-10T04:48:03.608Z,78.96
2022-08-10T04:49:02.702Z,80.18
2022-08-10T04:50:02.710Z,80.47
2022-08-10T04:51:02.760Z,81.43
2022-08-10T04:52:03.550Z,80.47
2022-08-10T04:53:03.699Z,80.31
2022-08-10T04:54:08.229Z,79.87
2022-08-10T04:55:03.365Z,79.67
2022-08-10T04:56:03.311Z,80.88
2022-08-10T04:57:03.074Z,80.07
2022-08-10T04:58:02.972Z,80.27
2022-08-10T04:59:02.962Z,80.58
2022-08-10T05:00:03.041Z,79.67
2022-08-10T05:01:02.752Z,80.58
2022-08-10T05:02:27.908Z,79.57
2022-08-10T05:03:03.421Z,80.38
2022-08-10T05:04:36.849Z,79.67
2022-08-10T05:05:02.968Z,79.77
2022-08-10T05:06:03.035Z,79.67
2022-08-10T05:07:03.141Z,80.27
2022-08-10T05:08:03.327Z,81.49
2022-08-10T05:09:03.272Z,81.29
2022-08-10T05:10:07.399Z,80.58
2022-08-10T05:11:03.596Z,79.77
2022-08-10T05:12:02.636Z,80.38
2022-08-10T05:13:02.728Z,80.88
2022-08-10T05:14:02.810Z,80.07
2022-08-10T05:15:02.876Z,80.68
2022-08-10T05:16:03.178Z,80.58
2022-08-10T05:17:03.189Z,80.38
2022-08-10T05:18:08.616Z,80.18
2022-08-10T05:19:03.265Z,80.27
2022-08-10T05:20:06.811Z,80.27
2022-08-10T05:21:03.476Z,80.54
2022-08-10T05:22:04.836Z,81.39
2022-08-10T05:23:02.694Z,80.74
2022-08-10T05:24:02.901Z,81.15
2022-08-10T05:25:03.052Z,80.64
2022-08-10T05:26:03.010Z,81.25
2022-08-10T05:27:10.000Z,81.65
2022-08-10T05:28:06.497Z,81.96
2022-08-10T05:29:03.085Z,82.06
2022-08-10T05:30:03.796Z,82.06
2022-08-10T05:31:03.436Z,82.36
2022-08-10T05:32:02.521Z,81.55
2022-08-10T05:33:06.498Z,81.51
2022-08-10T05:34:03.026Z,80.60
2022-08-10T05:35:02.596Z,80.30
2022-08-10T05:36:02.896Z,79.75
2022-08-10T05:37:03.035Z,79.96
2022-08-10T05:38:09.384Z,79.66
2022-08-10T05:39:03.389Z,79.01
2022-08-10T05:40:03.507Z,78.91
2022-08-10T05:41:03.207Z,79.01
2022-08-10T05:42:03.212Z,78.30
2022-08-10T05:43:03.229Z,77.97
2022-08-10T05:44:03.260Z,77.66
2022-08-10T05:45:03.386Z,77.56
2022-08-10T05:46:19.568Z,77.26
2022-08-10T05:47:03.329Z,77.53
2022-08-10T05:48:57.923Z,77.12
2022-08-10T05:49:03.529Z,77.93
2022-08-10T05:50:03.345Z,77.53
2022-08-10T05:51:03.379Z,78.80
2022-08-10T05:52:03.508Z,78.59
2022-08-10T05:53:59.887Z,77.89
2022-08-10T05:54:06.631Z,77.66
2022-08-10T05:55:03.883Z,77.45
2022-08-10T05:56:03.926Z,77.04
2022-08-10T05:57:02.844Z,77.21
2022-08-10T05:58:03.173Z,77.11
2022-08-10T05:59:03.255Z,77.31
2022-08-10T06:00:11.369Z,78.22
2022-08-10T06:01:03.231Z,77.68
2022-08-10T06:02:31.873Z,77.98
2022-08-10T06:03:03.064Z,77.98
2022-08-10T06:04:03.080Z,77.84
2022-08-10T06:05:03.205Z,77.34
2022-08-10T06:06:03.318Z,76.94
2022-08-10T06:07:02.530Z,77.20
2022-08-10T06:08:02.852Z,77.00
2022-08-10T06:09:02.617Z,76.70
2022-08-10T06:10:02.685Z,76.46
2022-08-10T06:12:26.936Z,76.73
2022-08-10T06:12:27.317Z,77.17
2022-08-10T06:13:03.302Z,76.63
2022-08-10T06:14:15.781Z,75.92
2022-08-10T06:15:05.621Z,75.89
2022-08-10T06:16:02.877Z,75.68
2022-08-10T06:17:02.904Z,75.99
2022-08-10T06:18:03.098Z,75.79
2022-08-10T06:19:03.043Z,75.65
2022-08-10T06:20:03.108Z,75.65
2022-08-10T06:21:03.131Z,75.42
2022-08-10T06:22:03.342Z,75.11
2022-08-10T06:23:03.392Z,74.71
2022-08-10T06:24:03.591Z,74.91
2022-08-10T06:26:10.019Z,73.87
2022-08-10T06:27:02.761Z,74.04
2022-08-10T06:28:02.776Z,73.74
2022-08-10T06:29:04.156Z,73.74
2022-08-10T06:30:02.685Z,73.40
2022-08-10T06:31:02.869Z,73.10
2022-08-10T06:32:03.006Z,72.86
2022-08-10T06:33:03.139Z,73.57
2022-08-10T06:34:03.196Z,73.03
2022-08-10T06:35:03.301Z,72.43
2022-08-10T06:36:03.183Z,72.60
2022-08-10T06:37:03.319Z,72.00
2022-08-10T06:38:03.376Z,71.39
2022-08-10T06:39:29.970Z,71.46
2022-08-10T06:40:03.540Z,70.96
2022-08-10T06:41:03.406Z,71.03
2022-08-10T06:42:15.892Z,71.33
2022-08-10T06:43:03.494Z,70.92
2022-08-10T06:44:03.892Z,71.19
2022-08-10T06:45:03.743Z,71.09
2022-08-10T06:46:07.288Z,70.96
2022-08-10T06:47:02.868Z,70.86
2022-08-10T06:48:02.941Z,70.23
2022-08-10T06:49:02.974Z,69.82
2022-08-10T06:50:04.884Z,69.82
2022-08-10T06:51:03.304Z,69.79
2022-08-10T06:52:03.345Z,69.49
2022-08-10T06:53:03.661Z,69.26
2022-08-10T06:54:03.558Z,69.16
2022-08-10T06:55:05.057Z,68.93
2022-08-10T06:56:03.255Z,67.73
2022-08-10T06:57:17.657Z,68.43
2022-08-10T06:58:03.177Z,68.30
2022-08-10T06:59:03.200Z,67.50
2022-08-10T07:00:03.275Z,67.96
2022-08-10T07:01:02.737Z,66.97
2022-08-10T07:02:02.534Z,65.54
2022-08-10T07:03:02.630Z,64.94
2022-08-10T07:04:02.266Z,62.85
2022-08-10T07:05:02.657Z,62.72
2022-08-10T07:06:02.645Z,62.13
2022-08-10T07:07:02.907Z,62.72
2022-08-10T07:08:02.908Z,62.99
2022-08-10T07:09:02.977Z,63.19
2022-08-10T07:10:03.115Z,62.79
2022-08-10T07:11:02.994Z,62.99
2022-08-10T07:12:08.319Z,61.77
2022-08-10T07:13:02.659Z,61.96
2022-08-10T07:14:17.512Z,59.58
2022-08-10T07:15:03.170Z,59.35
2022-08-10T07:16:02.641Z,60.84
2022-08-10T07:17:03.226Z,60.25
2022-08-10T07:18:03.114Z,60.74
2022-08-10T07:19:03.278Z,60.61
2022-08-10T07:20:04.347Z,60.52
2022-08-10T07:21:03.519Z,60.42
2022-08-10T07:22:02.282Z,59.12
2022-08-10T07:23:56.234Z,58.33
2022-08-10T07:24:03.240Z,57.51
2022-08-10T07:25:02.682Z,58.20
2022-08-10T07:26:02.834Z,58.20
2022-08-10T07:27:03.012Z,58.37
2022-08-10T07:28:02.972Z,59.07
2022-08-10T07:29:02.613Z,57.45
2022-08-10T07:30:02.701Z,57.95
2022-08-10T07:31:02.987Z,57.35
2022-08-10T07:32:03.634Z,58.74
2022-08-10T07:33:03.307Z,57.03
2022-08-10T07:34:03.472Z,57.13
2022-08-10T07:35:03.307Z,57.03
2022-08-10T07:36:03.127Z,55.91
2022-08-10T07:37:02.937Z,56.21
2022-08-10T07:38:02.748Z,57.40
2022-08-10T07:39:02.802Z,58.46
2022-08-10T07:40:04.873Z,58.46
2022-08-10T07:41:02.355Z,55.26
2022-08-10T07:42:02.991Z,55.06
2022-08-10T07:43:02.468Z,52.59
2022-08-10T07:44:02.847Z,53.38
2022-08-10T07:45:02.976Z,53.67
2022-08-10T07:46:03.030Z,53.08
2022-08-10T07:47:02.846Z,53.67
2022-08-10T07:48:07.459Z,54.05
2022-08-10T07:49:03.188Z,52.07
2022-08-10T07:50:03.381Z,51.87
2022-08-10T07:51:03.398Z,51.28
2022-08-10T07:52:02.968Z,53.72
2022-08-10T07:53:02.867Z,53.72
2022-08-10T07:54:02.497Z,51.65
2022-08-10T07:55:02.726Z,51.45
2022-08-10T07:56:13.226Z,53.03
2022-08-10T07:57:03.599Z,52.34
2022-08-10T07:58:03.606Z,51.62
2022-08-10T07:59:03.466Z,51.92
2022-08-10T08:00:04.472Z,51.23
2022-08-10T08:01:03.525Z,51.23
2022-08-10T08:02:03.645Z,50.53
2022-08-10T08:03:03.557Z,50.24
2022-08-10T08:04:10.802Z,53.00
2022-08-10T08:05:03.694Z,52.71
2022-08-10T08:06:11.450Z,50.90
2022-08-10T08:07:02.592Z,50.81
2022-08-10T08:08:02.662Z,50.61
2022-08-10T08:09:02.798Z,49.32
2022-08-10T08:10:02.732Z,50.61
2022-08-10T08:11:02.729Z,52.19
2022-08-10T08:12:02.723Z,51.40
2022-08-10T08:13:02.893Z,51.10
2022-08-10T08:14:03.307Z,50.09
2022-08-10T08:16:17.054Z,50.31
2022-08-10T08:16:18.013Z,49.01
2022-08-10T08:17:03.031Z,50.19
2022-08-10T08:18:03.547Z,49.01
2022-08-10T08:19:27.975Z,51.37
2022-08-10T08:20:03.096Z,53.05
2022-08-10T08:21:03.296Z,51.35
2022-08-10T08:24:11.137Z,50.36
2022-08-10T08:24:14.653Z,53.03
2022-08-10T08:24:31.076Z,50.26
2022-08-10T08:25:02.613Z,48.96
2022-08-10T08:26:03.031Z,48.75
2022-08-10T08:27:02.827Z,49.35
2022-08-10T08:28:02.888Z,48.16
2022-08-10T08:29:05.020Z,47.87
2022-08-10T08:30:03.098Z,48.36
2022-08-10T08:31:03.235Z,47.97
2022-08-10T08:32:03.984Z,48.16
2022-08-10T08:33:03.953Z,49.52
2022-08-10T08:34:03.692Z,48.83
2022-08-10T08:35:03.437Z,48.93
2022-08-10T08:36:03.366Z,49.03
2022-08-10T08:37:03.440Z,48.54
2022-08-10T08:38:29.302Z,49.10
2022-08-10T08:39:03.421Z,48.12
2022-08-10T08:40:03.984Z,47.63
2022-08-10T08:41:03.999Z,46.44
2022-08-10T08:42:03.150Z,48.12
2022-08-10T08:43:03.194Z,47.23
2022-08-10T08:44:03.661Z,47.80
2022-08-10T08:45:03.428Z,47.70
2022-08-10T08:46:03.558Z,48.79
2022-08-10T08:47:03.403Z,46.52
2022-08-10T08:48:06.334Z,47.31
2022-08-10T08:49:03.903Z,47.48
2022-08-10T08:50:07.635Z,47.28
2022-08-10T08:51:03.785Z,46.59
2022-08-10T08:52:07.063Z,45.02
2022-08-10T08:53:02.976Z,46.40
2022-08-10T08:54:04.110Z,47.19
2022-08-10T08:55:03.368Z,47.48
2022-08-10T08:56:06.953Z,45.81
2022-08-10T08:57:03.238Z,47.09
2022-08-10T08:58:03.391Z,46.67
2022-08-10T08:59:03.371Z,46.08
2022-08-10T09:00:03.320Z,45.78
2022-08-10T09:01:03.550Z,47.26
2022-08-10T09:02:02.523Z,46.45
2022-08-10T09:03:02.620Z,45.67
2022-08-10T09:04:02.750Z,47.24
2022-08-10T09:05:02.902Z,46.94
2022-08-10T09:06:02.827Z,44.48
2022-08-10T09:07:03.125Z,45.47
2022-08-10T09:08:03.426Z,46.35
2022-08-10T09:09:03.478Z,44.95
2022-08-10T09:10:03.492Z,44.85
2022-08-10T09:11:03.314Z,44.66
2022-08-10T09:12:02.722Z,45.84
2022-08-10T09:13:02.714Z,44.46
2022-08-10T09:14:02.679Z,44.07
2022-08-10T09:15:02.563Z,43.48
2022-08-10T09:16:02.691Z,44.15
2022-08-10T09:17:03.359Z,44.05
2022-08-10T09:18:03.500Z,44.64
2022-08-10T09:19:03.580Z,44.34
2022-08-10T09:20:03.695Z,43.63
2022-08-10T09:21:03.145Z,43.53
2022-08-10T09:22:13.196Z,43.53
2022-08-10T09:23:02.866Z,44.91
2022-08-10T09:24:05.773Z,43.22
2022-08-10T09:25:03.346Z,41.35
2022-08-10T09:26:03.225Z,42.16
2022-08-10T09:27:03.309Z,40.58
2022-08-10T09:28:03.444Z,43.33
2022-08-10T09:29:13.273Z,43.32
2022-08-10T09:30:03.479Z,41.45
2022-08-10T09:31:21.360Z,40.86
2022-08-10T09:33:07.671Z,42.14
2022-08-10T09:36:20.092Z,41.55
2022-08-10T09:36:20.305Z,42.24
2022-08-10T09:36:22.103Z,41.94
2022-08-10T09:36:26.579Z,42.33
2022-08-10T09:37:02.858Z,41.82
2022-08-10T09:38:03.332Z,40.94
2022-08-10T09:39:02.975Z,40.55
2022-08-10T09:40:56.715Z,40.16
2022-08-10T09:41:06.331Z,41.82
2022-08-10T09:42:03.356Z,40.74
2022-08-10T09:43:25.599Z,40.63
2022-08-10T09:44:03.454Z,40.03
2022-08-10T09:45:03.608Z,40.13
2022-08-10T09:46:03.420Z,39.76
2022-08-10T09:47:03.449Z,39.86
2022-08-10T09:48:03.565Z,39.37
2022-08-10T09:49:03.570Z,38.78
2022-08-10T09:50:04.915Z,39.66
2022-08-10T09:52:03.498Z,40.25
2022-08-10T09:53:03.516Z,39.15
2022-08-10T09:54:03.700Z,39.15
2022-08-10T09:55:03.425Z,39.84
2022-08-10T09:56:17.633Z,39.06
2022-08-10T09:57:43.515Z,38.66
2022-08-10T09:58:03.908Z,38.56
2022-08-10T09:59:59.564Z,39.06
2022-08-10T10:00:03.525Z,39.74
2022-08-10T10:01:04.031Z,40.72
2022-08-10T10:02:04.471Z,40.01
2022-08-10T10:03:02.749Z,38.84
2022-08-10T10:04:02.638Z,37.66
2022-08-10T10:05:02.870Z,38.93
2022-08-10T10:06:02.997Z,40.01
2022-08-10T10:07:03.204Z,38.82
2022-08-10T10:08:03.360Z,37.35
2022-08-10T10:09:10.517Z,38.33
2022-08-10T10:10:02.992Z,37.65
2022-08-10T10:11:03.319Z,37.65
2022-08-10T10:12:05.258Z,38.43
2022-08-10T10:13:03.481Z,37.15
2022-08-10T10:14:06.424Z,38.13
2022-08-10T10:15:02.968Z,37.94
2022-08-10T10:16:03.115Z,37.65
2022-08-10T10:17:02.943Z,38.72
2022-08-10T10:18:03.042Z,39.31
2022-08-10T10:19:02.565Z,39.69
2022-08-10T10:20:02.714Z,38.70
2022-08-10T10:21:02.654Z,35.66
2022-08-10T10:22:03.178Z,38.51
2022-08-10T10:23:02.805Z,36.84
2022-08-10T10:24:21.127Z,37.23
2022-08-10T10:25:21.079Z,36.94
2022-08-10T10:26:08.461Z,38.70
2022-08-10T10:27:03.551Z,38.29
2022-08-10T10:28:03.211Z,37.81
2022-08-10T10:30:03.268Z,36.63
2022-08-10T10:31:03.439Z,35.45
2022-08-10T10:32:03.571Z,38.10
2022-08-10T10:33:03.749Z,37.51
2022-08-10T10:34:03.322Z,38.00
2022-08-10T10:35:03.150Z,36.04
2022-08-10T10:36:03.390Z,35.55
2022-08-10T10:37:04.102Z,34.96
2022-08-10T10:38:04.291Z,35.25
2022-08-10T10:39:04.097Z,36.53
2022-08-10T10:40:04.018Z,35.55
2022-08-10T10:41:04.069Z,35.06
2022-08-10T10:42:04.984Z,35.65
2022-08-10T10:43:03.896Z,37.69
2022-08-10T10:44:03.408Z,37.39
2022-08-10T10:45:03.778Z,36.02
2022-08-10T10:46:03.837Z,36.12
2022-08-10T10:47:03.578Z,35.93
2022-08-10T10:48:03.052Z,37.59
2022-08-10T10:49:03.346Z,37.19
2022-08-10T10:50:03.402Z,36.10
2022-08-10T10:51:07.157Z,35.03
2022-08-10T10:52:04.305Z,33.95
2022-08-10T10:53:04.555Z,34.93
2022-08-10T10:54:04.060Z,35.03
2022-08-10T10:55:03.780Z,35.13
2022-08-10T10:56:15.516Z,34.44
2022-08-10T10:57:03.628Z,32.78
2022-08-10T10:58:03.568Z,32.68
2022-08-10T10:59:53.371Z,32.48
2022-08-10T11:00:03.548Z,34.36
2022-08-10T11:01:03.089Z,34.16
2022-08-10T11:02:02.526Z,34.45
2022-08-10T11:03:02.682Z,33.77
2022-08-10T11:04:02.761Z,34.45
2022-08-10T11:05:02.755Z,35.71
2022-08-10T11:06:02.827Z,33.56
2022-08-10T11:07:03.010Z,33.17
2022-08-10T11:08:03.133Z,36.30
2022-08-10T11:09:03.257Z,33.65
2022-08-10T11:10:19.770Z,34.24
2022-08-10T11:11:03.319Z,33.85
2022-08-10T11:12:04.847Z,33.07
2022-08-10T11:14:23.244Z,33.46
2022-08-10T11:14:25.316Z,36.59
2022-08-10T11:15:03.643Z,33.85
2022-08-10T11:16:03.933Z,35.50
2022-08-10T11:17:03.958Z,34.72
2022-08-10T11:18:03.110Z,33.84
2022-08-10T11:19:03.199Z,33.82
2022-08-10T11:20:04.179Z,33.54
2022-08-10T11:21:03.155Z,33.34
2022-08-10T11:22:03.263Z,33.34
2022-08-10T11:23:03.903Z,33.53
2022-08-10T11:24:48.583Z,34.60
2022-08-10T11:25:04.149Z,33.14
2022-08-10T11:26:03.929Z,33.72
2022-08-10T11:27:03.971Z,32.65
2022-08-10T11:28:03.828Z,35.77
2022-08-10T11:29:03.710Z,35.46
2022-08-10T11:30:03.182Z,34.88
2022-08-10T11:31:03.341Z,37.01
2022-08-10T11:32:03.495Z,32.91
2022-08-10T11:33:03.179Z,33.89
2022-08-10T11:34:47.453Z,33.50
2022-08-10T11:35:11.626Z,34.77
2022-08-10T11:36:03.195Z,34.67
2022-08-10T11:37:03.414Z,34.18
2022-08-10T11:38:29.620Z,34.86
2022-08-10T11:39:18.729Z,34.08
2022-08-10T11:40:03.762Z,34.16
2022-08-10T11:41:12.836Z,33.97
2022-08-10T11:42:11.509Z,35.14
2022-08-10T11:43:03.391Z,33.67
2022-08-10T11:44:03.530Z,34.84
2022-08-10T11:45:03.614Z,32.40
2022-08-10T11:46:07.860Z,34.45
2022-08-10T11:47:03.886Z,33.28
2022-08-10T11:48:03.986Z,34.06
2022-08-10T11:49:04.203Z,33.97
2022-08-10T11:50:04.157Z,33.30
2022-08-10T11:51:04.115Z,34.77
2022-08-10T11:52:03.563Z,33.77
2022-08-10T11:53:03.523Z,33.28
2022-08-10T11:54:03.284Z,33.48
2022-08-10T11:55:03.388Z,35.43
2022-08-10T11:56:04.604Z,34.36
2022-08-10T11:57:03.594Z,35.80
2022-08-10T11:58:04.184Z,37.17
2022-08-10T11:59:16.431Z,35.59
2022-08-10T12:00:04.141Z,34.22
2022-08-10T12:01:03.767Z,33.64
2022-08-10T12:02:04.255Z,34.11
2022-08-10T12:03:02.403Z,34.50
2022-08-10T12:04:02.511Z,34.01
2022-08-10T12:05:02.775Z,33.33
2022-08-10T12:06:02.998Z,33.33
2022-08-10T12:07:02.533Z,34.69
2022-08-10T12:10:02.350Z,33.14
2022-08-10T12:10:09.139Z,34.59
2022-08-10T12:10:13.105Z,34.09
2022-08-10T12:11:02.944Z,32.35
2022-08-10T12:12:03.128Z,33.14
2022-08-10T12:13:02.486Z,32.94
2022-08-10T12:14:20.874Z,32.55
2022-08-10T12:15:02.752Z,33.92
2022-08-10T12:16:05.536Z,33.62
2022-08-10T12:17:02.637Z,35.38
2022-08-10T12:18:02.814Z,34.78
2022-08-10T12:19:03.384Z,34.09
2022-08-10T12:20:03.898Z,33.22
2022-08-10T12:21:03.352Z,31.66
2022-08-10T12:22:06.045Z,32.92
2022-08-10T12:23:02.909Z,35.06
2022-08-10T12:24:03.600Z,33.41
2022-08-10T12:25:03.479Z,33.41
2022-08-10T12:26:03.158Z,33.12
2022-08-10T12:27:03.278Z,33.61
2022-08-10T12:28:02.473Z,32.43
2022-08-10T12:29:02.671Z,33.39
2022-08-10T12:30:02.825Z,32.62
2022-08-10T12:31:02.967Z,33.01
2022-08-10T12:32:03.062Z,31.64
2022-08-10T12:33:03.272Z,32.24
2022-08-10T12:34:03.408Z,33.61
2022-08-10T12:35:03.609Z,32.63
2022-08-10T12:36:17.843Z,33.51
2022-08-10T12:37:03.381Z,34.09
2022-08-10T12:38:02.573Z,33.39
2022-08-10T12:39:02.650Z,32.81
2022-08-10T12:40:31.773Z,31.37
2022-08-10T12:41:02.665Z,33.61
2022-08-10T12:42:02.686Z,31.17
2022-08-10T12:43:12.934Z,31.67
2022-08-10T12:44:07.667Z,32.75
2022-08-10T12:45:02.870Z,31.67
2022-08-10T12:46:06.568Z,32.16
2022-08-10T12:47:10.531Z,32.26
2022-08-10T12:48:03.264Z,32.94
2022-08-10T12:49:03.437Z,34.11
2022-08-10T12:50:29.358Z,33.80
2022-08-10T12:51:03.662Z,33.70
2022-08-10T12:52:03.799Z,33.51
2022-08-10T12:53:06.412Z,32.62
2022-08-10T12:54:02.942Z,31.63